createdAt,value
2023-04-26T00:00:09.507Z,1.80
2023-04-26T00:02:38.177Z,2.17
2023-04-26T00:05:10.042Z,1.70
2023-04-26T00:07:39.292Z,1.80
2023-04-26T00:10:08.636Z,1.90
2023-04-26T00:12:37.669Z,1.93
2023-04-26T00:15:07.694Z,2.10
2023-04-26T00:17:36.523Z,2.00
2023-04-26T00:20:09.322Z,2.10
2023-04-26T00:22:39.962Z,1.57
2023-04-26T00:25:09.119Z,2.10
2023-04-26T00:27:37.528Z,1.93
2023-04-26T00:30:07.184Z,2.10
2023-04-26T00:32:36.493Z,2.10
2023-04-26T00:35:06.523Z,2.13
2023-04-26T00:37:35.223Z,1.90
2023-04-26T00:40:06.324Z,2.00
2023-04-26T00:42:34.915Z,2.07
2023-04-26T00:45:04.195Z,1.90
2023-04-26T00:47:33.092Z,2.07
2023-04-26T00:50:03.794Z,2.00
2023-04-26T00:52:33.449Z,2.13
2023-04-26T00:55:02.135Z,1.93
2023-04-26T00:57:32.705Z,2.40
2023-04-26T01:00:01.224Z,2.00
2023-04-26T01:02:29.877Z,1.97
2023-04-26T01:04:58.467Z,1.93
2023-04-26T01:07:27.280Z,2.00
2023-04-26T01:09:56.934Z,2.23
2023-04-26T01:12:26.045Z,1.70
2023-04-26T01:14:56.474Z,2.00
2023-04-26T01:17:24.884Z,2.03
2023-04-26T01:19:53.707Z,2.33
2023-04-26T01:22:22.794Z,2.10
2023-04-26T01:24:56.491Z,2.40
2023-04-26T01:27:25.063Z,2.27
2023-04-26T01:29:54.144Z,2.47
2023-04-26T01:32:22.887Z,1.90
2023-04-26T01:34:51.334Z,2.23
2023-04-26T01:37:19.680Z,2.13
2023-04-26T01:39:48.296Z,2.13
2023-04-26T01:42:18.451Z,2.20
2023-04-26T01:44:47.155Z,2.33
2023-04-26T01:47:16.035Z,2.57
2023-04-26T01:49:44.860Z,2.10
2023-04-26T01:52:13.643Z,2.73
2023-04-26T01:54:42.311Z,2.87
2023-04-26T01:57:11.117Z,2.00
2023-04-26T01:59:41.298Z,2.17
2023-04-26T02:02:10.279Z,2.10
2023-04-26T02:04:39.013Z,2.60
2023-04-26T02:07:07.702Z,1.97
2023-04-26T02:09:36.317Z,1.90
2023-04-26T02:12:05.182Z,2.17
2023-04-26T02:14:34.723Z,2.50
2023-04-26T02:17:06.566Z,2.20
2023-04-26T02:19:35.270Z,2.37
2023-04-26T02:22:06.524Z,2.17
2023-04-26T02:24:35.353Z,2.07
2023-04-26T02:27:05.674Z,1.90
2023-04-26T02:29:42.961Z,2.43
2023-04-26T02:32:15.477Z,2.53
2023-04-26T02:34:44.975Z,2.13
2023-04-26T02:37:13.904Z,2.10
2023-04-26T02:39:42.584Z,2.50
2023-04-26T02:42:12.029Z,2.37
2023-04-26T02:44:40.965Z,2.13
2023-04-26T02:47:09.761Z,2.33
2023-04-26T02:49:39.902Z,2.17
2023-04-26T02:52:08.597Z,2.10
2023-04-26T02:54:37.434Z,2.50
2023-04-26T02:57:06.407Z,2.10
2023-04-26T02:59:35.104Z,2.20
2023-04-26T03:02:03.806Z,1.87
2023-04-26T03:04:34.612Z,2.70
2023-04-26T03:07:05.078Z,2.03
2023-04-26T03:09:34.653Z,2.47
2023-04-26T03:12:03.384Z,2.50
2023-04-26T03:14:31.917Z,2.73
2023-04-26T03:17:00.490Z,2.40
2023-04-26T03:19:29.416Z,3.13
2023-04-26T03:21:58.561Z,2.47
2023-04-26T03:24:28.821Z,2.47
2023-04-26T03:26:58.179Z,2.30
2023-04-26T03:29:27.223Z,2.40
2023-04-26T03:31:56.002Z,2.30
2023-04-26T03:34:24.559Z,2.10
2023-04-26T03:36:53.068Z,2.73
2023-04-26T03:39:22.174Z,2.27
2023-04-26T03:41:53.711Z,2.23
2023-04-26T03:44:22.343Z,2.30
2023-04-26T03:46:50.787Z,2.50
2023-04-26T03:49:19.430Z,2.30
2023-04-26T03:51:48.168Z,2.73
2023-04-26T03:54:17.140Z,2.73
2023-04-26T03:56:45.875Z,2.67
2023-04-26T03:59:15.765Z,2.50
2023-04-26T04:01:44.048Z,2.53
2023-04-26T04:04:12.468Z,2.83
2023-04-26T04:06:41.027Z,2.40
2023-04-26T04:09:09.414Z,2.60
2023-04-26T04:11:37.618Z,2.90
2023-04-26T04:14:05.949Z,2.50
2023-04-26T04:16:35.654Z,2.87
2023-04-26T04:19:04.361Z,2.80
2023-04-26T04:21:32.833Z,2.67
2023-04-26T04:24:01.359Z,2.70
2023-04-26T04:26:29.658Z,2.20
2023-04-26T04:29:00.663Z,2.50
2023-04-26T04:31:29.151Z,3.00
2023-04-26T04:33:59.211Z,2.53
2023-04-26T04:36:27.680Z,2.80
2023-04-26T04:38:56.025Z,2.83
2023-04-26T04:41:24.472Z,2.60
2023-04-26T04:43:53.743Z,2.73
2023-04-26T04:46:22.287Z,2.90
2023-04-26T04:48:50.749Z,2.60
2023-04-26T04:51:20.576Z,2.80
2023-04-26T04:53:48.806Z,2.90
2023-04-26T04:56:18.561Z,2.40
2023-04-26T04:58:47.947Z,2.87
2023-04-26T05:01:16.304Z,2.77
2023-04-26T05:03:44.828Z,2.40
2023-04-26T05:06:13.258Z,2.53
2023-04-26T05:08:42.941Z,2.70
2023-04-26T05:11:11.343Z,2.57
2023-04-26T05:13:39.681Z,2.70
2023-04-26T05:16:08.223Z,2.40
2023-04-26T05:18:36.929Z,2.60
2023-04-26T05:21:05.440Z,2.50
2023-04-26T05:23:34.454Z,2.47
2023-04-26T05:26:06.180Z,2.20
2023-04-26T05:28:35.117Z,2.80
2023-04-26T05:31:04.240Z,2.47
2023-04-26T05:33:32.550Z,2.00
2023-04-26T05:36:01.683Z,2.20
2023-04-26T05:38:30.237Z,1.93
2023-04-26T05:40:58.803Z,2.10
2023-04-26T05:43:28.540Z,2.10
2023-04-26T05:45:57.922Z,2.37
2023-04-26T05:48:26.701Z,2.50
2023-04-26T05:50:55.144Z,2.50
2023-04-26T05:53:23.687Z,2.00
2023-04-26T05:55:51.986Z,2.60
2023-04-26T05:58:20.386Z,3.00
2023-04-26T06:00:50.106Z,2.10
2023-04-26T06:03:19.505Z,2.47
2023-04-26T06:05:48.217Z,3.00
2023-04-26T06:08:16.651Z,2.20
2023-04-26T06:10:45.005Z,2.30
2023-04-26T06:13:13.433Z,2.07
2023-04-26T06:15:41.757Z,2.30
2023-04-26T06:18:11.588Z,2.60
2023-04-26T06:20:40.004Z,2.43
2023-04-26T06:23:08.895Z,2.60
2023-04-26T06:25:37.473Z,2.83
2023-04-26T06:28:06.227Z,2.23
2023-04-26T06:30:34.574Z,2.83
2023-04-26T06:33:03.256Z,2.30
2023-04-26T06:35:33.140Z,4.60
2023-04-26T06:38:02.679Z,6.03
2023-04-26T06:40:31.124Z,4.03
2023-04-26T06:42:59.519Z,5.47
2023-04-26T06:45:28.005Z,3.80
2023-04-26T06:47:57.227Z,3.67
2023-04-26T06:50:25.676Z,3.23
2023-04-26T06:52:55.601Z,2.83
2023-04-26T06:55:24.936Z,3.23
2023-04-26T06:57:53.327Z,3.73
2023-04-26T07:00:22.444Z,2.80
2023-04-26T07:02:51.004Z,2.30
2023-04-26T07:05:19.695Z,2.70
2023-04-26T07:07:48.287Z,2.47
2023-04-26T07:10:18.080Z,2.67
2023-04-26T07:12:46.648Z,2.27
2023-04-26T07:15:15.083Z,2.30
2023-04-26T07:17:43.634Z,2.30
2023-04-26T07:20:13.298Z,2.17
2023-04-26T07:22:41.661Z,2.17
2023-04-26T07:25:10.409Z,2.23
2023-04-26T07:27:40.232Z,1.97
2023-04-26T07:30:10.319Z,2.10
2023-04-26T07:32:38.791Z,2.53
2023-04-26T07:35:10.677Z,2.20
2023-04-26T07:37:39.306Z,2.43
2023-04-26T07:40:10.530Z,2.47
2023-04-26T07:42:40.391Z,2.27
2023-04-26T07:45:10.308Z,2.60
2023-04-26T07:47:38.679Z,2.27
2023-04-26T07:50:08.451Z,2.60
2023-04-26T07:52:36.922Z,2.30
2023-04-26T07:55:05.680Z,2.37
2023-04-26T07:57:34.136Z,1.87
2023-04-26T08:00:04.659Z,2.30
2023-04-26T08:02:44.642Z,2.17
2023-04-26T08:05:14.519Z,2.27
2023-04-26T08:07:43.623Z,2.40
2023-04-26T08:10:13.107Z,2.00
2023-04-26T08:12:41.681Z,2.07
2023-04-26T08:15:13.168Z,2.40
2023-04-26T08:17:41.785Z,1.90
2023-04-26T08:20:11.118Z,2.60
2023-04-26T08:22:39.754Z,2.10
2023-04-26T08:25:08.819Z,2.10
2023-04-26T08:27:37.565Z,2.17
2023-04-26T08:30:06.990Z,2.27
2023-04-26T08:32:36.949Z,2.30
2023-04-26T08:35:06.014Z,2.50
2023-04-26T08:37:35.882Z,1.97
2023-04-26T08:40:05.038Z,2.07
2023-04-26T08:42:35.805Z,2.30
2023-04-26T08:45:06.432Z,1.93
2023-04-26T08:47:42.568Z,1.83
2023-04-26T08:50:12.878Z,1.60
2023-04-26T08:52:42.236Z,1.77
2023-04-26T08:55:12.906Z,1.80
2023-04-26T08:57:42.177Z,1.47
2023-04-26T09:00:12.592Z,1.60
2023-04-26T09:02:47.403Z,1.77
2023-04-26T09:05:16.089Z,1.80
2023-04-26T09:07:46.535Z,2.07
2023-04-26T09:10:17.135Z,2.07
2023-04-26T09:12:45.603Z,1.63
2023-04-26T09:15:17.048Z,1.80
2023-04-26T09:17:47.128Z,1.70
2023-04-26T09:20:24.068Z,1.83
2023-04-26T09:22:54.467Z,1.60
2023-04-26T09:25:30.675Z,1.80
2023-04-26T09:27:59.722Z,2.47
2023-04-26T09:30:28.852Z,1.80
2023-04-26T09:32:59.834Z,2.10
2023-04-26T09:35:30.500Z,1.53
2023-04-26T09:38:08.011Z,2.00
2023-04-26T09:40:41.399Z,1.80
2023-04-26T09:43:12.877Z,2.47
2023-04-26T09:45:50.138Z,2.50
2023-04-26T09:48:23.072Z,2.23
2023-04-26T09:50:53.493Z,2.67
2023-04-26T09:53:29.831Z,2.90
2023-04-26T09:55:58.952Z,2.03
2023-04-26T09:58:27.301Z,2.30
2023-04-26T10:00:57.036Z,1.60
2023-04-26T10:03:27.268Z,2.63
2023-04-26T10:05:56.015Z,1.93
2023-04-26T10:08:24.761Z,1.90
2023-04-26T10:10:53.236Z,1.90
2023-04-26T10:13:21.566Z,1.70
2023-04-26T10:15:50.294Z,1.90
2023-04-26T10:18:18.728Z,1.40
2023-04-26T10:20:53.192Z,1.70
2023-04-26T10:23:25.684Z,1.90
2023-04-26T10:25:54.575Z,1.70
2023-04-26T10:29:02.211Z,1.60
2023-04-26T10:32:17.313Z,1.93
2023-04-26T10:35:07.542Z,1.73
2023-04-26T10:37:37.790Z,1.87
2023-04-26T10:40:27.499Z,1.77
2023-04-26T10:43:29.239Z,1.80
2023-04-26T10:45:58.073Z,1.90
2023-04-26T10:48:32.113Z,1.60
2023-04-26T10:51:12.521Z,1.90
2023-04-26T10:54:02.371Z,1.83
2023-04-26T10:56:54.677Z,1.90
2023-04-26T10:59:39.912Z,1.80
2023-04-26T11:02:12.485Z,1.77
2023-04-26T11:04:53.737Z,1.87
2023-04-26T11:07:40.301Z,2.20
2023-04-26T11:10:11.871Z,1.50
2023-04-26T11:12:43.655Z,2.13
2023-04-26T11:15:14.434Z,2.20
2023-04-26T11:17:42.963Z,2.20
2023-04-26T11:20:17.221Z,2.03
2023-04-26T11:22:45.763Z,2.10
2023-04-26T11:25:15.686Z,2.20
2023-04-26T11:27:44.977Z,1.97
2023-04-26T11:30:14.517Z,1.80
2023-04-26T11:32:43.092Z,2.10
2023-04-26T11:35:11.791Z,2.43
2023-04-26T11:37:40.227Z,2.47
2023-04-26T11:40:12.721Z,2.40
2023-04-26T11:42:42.824Z,2.13
2023-04-26T11:45:12.482Z,2.63
2023-04-26T11:47:42.403Z,2.57
2023-04-26T11:50:11.579Z,2.80
2023-04-26T11:52:42.021Z,2.50
2023-04-26T11:55:11.730Z,2.53
2023-04-26T11:57:41.749Z,2.00
2023-04-26T12:00:15.061Z,2.50
2023-04-26T12:02:47.662Z,2.07
2023-04-26T12:05:26.586Z,2.63
2023-04-26T12:07:56.838Z,2.10
2023-04-26T12:10:27.997Z,2.07
2023-04-26T12:13:00.142Z,1.90
2023-04-26T12:15:32.873Z,2.10
2023-04-26T12:18:02.767Z,2.50
2023-04-26T12:20:34.919Z,2.20
2023-04-26T12:23:07.648Z,2.50
2023-04-26T12:25:38.517Z,3.17
2023-04-26T12:28:12.825Z,2.60
2023-04-26T12:30:42.624Z,2.20
2023-04-26T12:33:17.265Z,3.20
2023-04-26T12:35:47.078Z,2.43
2023-04-26T12:38:16.052Z,2.63
2023-04-26T12:40:47.628Z,2.23
2023-04-26T12:43:18.186Z,2.47
2023-04-26T12:45:47.324Z,2.33
2023-04-26T12:48:16.949Z,4.10
2023-04-26T12:50:46.208Z,7.90
2023-04-26T12:53:15.723Z,3.60
2023-04-26T12:55:45.417Z,3.73
2023-04-26T12:58:14.545Z,3.27
2023-04-26T13:00:45.163Z,7.20
2023-04-26T13:03:14.994Z,3.30
2023-04-26T13:05:43.801Z,2.80
2023-04-26T13:08:12.725Z,2.63
2023-04-26T13:10:41.570Z,4.23
2023-04-26T13:13:10.172Z,2.80
2023-04-26T13:15:39.029Z,2.40
2023-04-26T13:18:09.259Z,3.03
2023-04-26T13:20:38.477Z,2.33
2023-04-26T13:23:07.330Z,2.43
2023-04-26T13:25:36.154Z,2.43
2023-04-26T13:28:04.980Z,2.20
2023-04-26T13:30:33.793Z,2.40
2023-04-26T13:33:02.456Z,2.30
2023-04-26T13:35:32.541Z,2.97
2023-04-26T13:38:01.419Z,2.83
2023-04-26T13:40:30.330Z,2.50
2023-04-26T13:42:59.619Z,2.77
2023-04-26T13:45:28.540Z,2.37
2023-04-26T13:47:57.441Z,2.47
2023-04-26T13:50:26.164Z,2.60
2023-04-26T13:52:56.798Z,3.03
2023-04-26T13:55:25.932Z,2.33
2023-04-26T13:57:54.579Z,2.10
2023-04-26T14:00:24.287Z,2.40
2023-04-26T14:02:53.282Z,3.03
2023-04-26T14:05:22.330Z,2.10
2023-04-26T14:07:53.562Z,2.67
2023-04-26T14:10:25.241Z,2.30
2023-04-26T14:12:55.006Z,2.30
2023-04-26T14:15:23.889Z,2.23
2023-04-26T14:17:52.449Z,2.20
2023-04-26T14:20:20.998Z,2.73
2023-04-26T14:22:50.325Z,2.40
2023-04-26T14:25:19.119Z,2.07
2023-04-26T14:27:50.243Z,2.30
2023-04-26T14:30:20.063Z,2.40
2023-04-26T14:32:48.858Z,2.47
2023-04-26T14:35:17.792Z,2.43
2023-04-26T14:37:46.645Z,2.30
2023-04-26T14:40:15.713Z,2.37
2023-04-26T14:42:46.287Z,2.40
2023-04-26T14:45:16.584Z,2.57
2023-04-26T14:47:45.113Z,2.77
2023-04-26T14:50:14.623Z,2.93
2023-04-26T14:52:47.209Z,2.50
2023-04-26T14:55:19.860Z,2.80
2023-04-26T14:57:48.379Z,2.10
2023-04-26T15:00:19.162Z,2.60
2023-04-26T15:02:48.166Z,2.57
2023-04-26T15:05:17.115Z,2.23
2023-04-26T15:07:45.528Z,2.67
2023-04-26T15:10:14.079Z,2.60
2023-04-26T15:12:42.866Z,2.50
2023-04-26T15:15:12.085Z,2.37
2023-04-26T15:17:41.965Z,2.83
2023-04-26T15:20:10.997Z,2.33
2023-04-26T15:22:39.629Z,2.40
2023-04-26T15:25:09.251Z,2.40
2023-04-26T15:27:38.026Z,2.37
2023-04-26T15:30:07.642Z,2.30
2023-04-26T15:32:36.358Z,2.50
2023-04-26T15:35:07.687Z,2.63
2023-04-26T15:37:38.918Z,2.20
2023-04-26T15:40:10.661Z,2.40
2023-04-26T15:42:39.497Z,2.63
2023-04-26T15:45:09.215Z,2.13
2023-04-26T15:47:38.261Z,3.50
2023-04-26T15:50:09.461Z,2.63
2023-04-26T15:52:39.518Z,2.40
2023-04-26T15:55:09.955Z,2.63
2023-04-26T15:57:38.826Z,2.20
2023-04-26T16:00:09.837Z,2.50
2023-04-26T16:02:38.411Z,2.77
2023-04-26T16:05:09.143Z,3.13
2023-04-26T16:07:38.987Z,2.57
2023-04-26T16:10:09.281Z,2.30
2023-04-26T16:12:39.842Z,2.20
2023-04-26T16:15:09.467Z,2.10
2023-04-26T16:17:38.911Z,2.60
2023-04-26T16:20:10.834Z,2.47
2023-04-26T16:22:39.469Z,2.50
2023-04-26T16:25:09.038Z,2.30
2023-04-26T16:27:37.489Z,2.10
2023-04-26T16:30:06.777Z,2.50
2023-04-26T16:32:35.268Z,2.63
2023-04-26T16:35:04.315Z,2.20
2023-04-26T16:37:34.084Z,2.07
2023-04-26T16:40:02.747Z,2.30
2023-04-26T16:42:32.208Z,4.55
2023-04-26T16:45:00.647Z,3.60
2023-04-26T16:47:29.149Z,2.13
2023-04-26T16:49:57.537Z,3.20
2023-04-26T16:52:25.945Z,2.40
2023-04-26T16:54:56.129Z,2.57
2023-04-26T16:57:24.559Z,3.00
2023-04-26T16:59:53.064Z,2.57
2023-04-26T17:02:21.648Z,2.77
2023-04-26T17:04:50.202Z,2.60
2023-04-26T17:07:18.726Z,2.30
2023-04-26T17:09:47.214Z,2.83
2023-04-26T17:12:16.916Z,2.20
2023-04-26T17:14:45.535Z,2.97
2023-04-26T17:17:14.043Z,2.67
2023-04-26T17:19:42.399Z,2.30
2023-04-26T17:22:11.400Z,2.50
2023-04-26T17:24:39.784Z,3.00
2023-04-26T17:27:08.214Z,5.77
2023-04-26T17:29:38.205Z,2.53
2023-04-26T17:32:07.069Z,5.00
2023-04-26T17:34:35.633Z,2.27
2023-04-26T17:37:05.392Z,3.23
2023-04-26T17:39:33.765Z,2.80
2023-04-26T17:42:03.144Z,2.40
2023-04-26T17:44:31.571Z,2.23
2023-04-26T17:47:01.467Z,2.30
2023-04-26T17:49:29.917Z,1.90
2023-04-26T17:51:58.307Z,2.83
2023-04-26T17:54:26.645Z,3.40
2023-04-26T17:56:55.114Z,7.33
2023-04-26T17:59:23.670Z,3.60
2023-04-26T18:01:52.101Z,5.03
2023-04-26T18:04:22.152Z,2.30
2023-04-26T18:06:51.197Z,2.30
2023-04-26T18:09:19.693Z,1.63
2023-04-26T18:11:48.296Z,1.90
2023-04-26T18:14:16.944Z,1.97
2023-04-26T18:16:45.346Z,1.70
2023-04-26T18:19:13.735Z,1.60
2023-04-26T18:21:43.678Z,1.60
2023-04-26T18:24:14.875Z,1.70
2023-04-26T18:26:43.526Z,1.80
2023-04-26T18:29:11.939Z,1.90
2023-04-26T18:31:40.536Z,1.97
2023-04-26T18:34:10.586Z,1.97
2023-04-26T18:36:39.070Z,2.10
2023-04-26T18:39:08.877Z,1.87
2023-04-26T18:41:37.239Z,2.10
2023-04-26T18:44:10.757Z,2.00
2023-04-26T18:46:39.207Z,2.20
2023-04-26T18:49:07.956Z,1.90
2023-04-26T18:51:36.453Z,2.20
2023-04-26T18:54:05.085Z,2.00
2023-04-26T18:56:34.836Z,1.87
2023-04-26T18:59:03.168Z,2.30
2023-04-26T19:01:31.554Z,2.13
2023-04-26T19:04:00.069Z,2.27
2023-04-26T19:06:28.598Z,2.10
2023-04-26T19:08:57.000Z,2.10
2023-04-26T19:11:25.814Z,2.50
2023-04-26T19:13:55.608Z,2.27
2023-04-26T19:16:23.923Z,2.27
2023-04-26T19:18:52.996Z,2.50
2023-04-26T19:21:21.347Z,2.27
2023-04-26T19:23:49.584Z,2.27
2023-04-26T19:26:18.141Z,2.23
2023-04-26T19:28:46.758Z,2.80
2023-04-26T19:31:16.602Z,2.67
2023-04-26T19:33:46.215Z,2.30
2023-04-26T19:36:14.477Z,2.93
2023-04-26T19:38:42.813Z,2.33
2023-04-26T19:41:11.213Z,2.30
2023-04-26T19:43:39.677Z,2.73
2023-04-26T19:46:14.293Z,3.00
2023-04-26T19:48:44.301Z,2.90
2023-04-26T19:51:17.419Z,2.70
2023-04-26T19:53:45.858Z,2.97
2023-04-26T19:56:14.160Z,2.37
2023-04-26T19:58:42.922Z,2.30
2023-04-26T20:01:11.334Z,2.90
2023-04-26T20:03:41.589Z,2.30
2023-04-26T20:06:13.995Z,2.63
2023-04-26T20:08:42.451Z,2.23
2023-04-26T20:11:15.164Z,2.60
2023-04-26T20:13:43.751Z,2.17
2023-04-26T20:16:12.685Z,2.27
2023-04-26T20:18:41.133Z,2.30
2023-04-26T20:21:11.035Z,2.43
2023-04-26T20:23:39.367Z,2.07
2023-04-26T20:26:07.629Z,2.10
2023-04-26T20:28:38.073Z,1.80
2023-04-26T20:31:07.606Z,1.97
2023-04-26T20:33:36.286Z,2.10
2023-04-26T20:36:04.789Z,2.23
2023-04-26T20:38:35.052Z,2.03
2023-04-26T20:41:04.590Z,1.93
2023-04-26T20:43:33.167Z,1.90
2023-04-26T20:46:01.609Z,1.90
2023-04-26T20:48:29.969Z,2.00
2023-04-26T20:50:58.879Z,2.17
2023-04-26T20:53:27.161Z,1.97
2023-04-26T20:55:57.029Z,2.20
2023-04-26T20:58:25.605Z,2.40
2023-04-26T21:00:55.581Z,2.20
2023-04-26T21:03:24.229Z,2.20
2023-04-26T21:05:52.774Z,1.90
2023-04-26T21:08:21.288Z,2.50
2023-04-26T21:10:50.041Z,2.13
2023-04-26T21:13:20.520Z,2.17
2023-04-26T21:15:49.290Z,2.57
2023-04-26T21:18:18.228Z,2.40
2023-04-26T21:20:46.784Z,2.10
2023-04-26T21:23:15.364Z,42.93
2023-04-26T21:25:46.618Z,27.50
2023-04-26T21:28:15.532Z,23.90
2023-04-26T21:30:45.750Z,22.10
2023-04-26T21:33:16.180Z,18.00
2023-04-26T21:35:44.948Z,12.03
2023-04-26T21:38:13.367Z,7.67
2023-04-26T21:40:42.028Z,7.97
2023-04-26T21:43:11.373Z,5.67
2023-04-26T21:45:39.855Z,6.77
2023-04-26T21:48:09.919Z,8.50
2023-04-26T21:50:38.446Z,3.93
2023-04-26T21:53:07.509Z,3.17
2023-04-26T21:55:36.443Z,4.47
2023-04-26T21:58:04.983Z,3.47
2023-04-26T22:00:33.771Z,3.70
2023-04-26T22:03:02.892Z,3.80
2023-04-26T22:05:33.393Z,5.53
2023-04-26T22:08:02.263Z,3.80
2023-04-26T22:10:31.350Z,3.20
2023-04-26T22:13:00.206Z,2.90
2023-04-26T22:15:29.089Z,3.43
2023-04-26T22:17:57.552Z,7.53
2023-04-26T22:20:26.916Z,19.77
2023-04-26T22:22:56.830Z,4.07
2023-04-26T22:25:26.869Z,2.20
2023-04-26T22:27:55.386Z,2.60
2023-04-26T22:30:25.939Z,2.30
2023-04-26T22:32:57.660Z,2.33
2023-04-26T22:35:27.085Z,2.30
2023-04-26T22:37:57.365Z,2.40
2023-04-26T22:40:26.358Z,2.20
2023-04-26T22:42:54.933Z,2.17
2023-04-26T22:45:23.890Z,1.90
2023-04-26T22:47:52.520Z,2.50
2023-04-26T22:50:21.118Z,2.50
2023-04-26T22:52:49.926Z,2.50
2023-04-26T22:55:19.795Z,2.33
2023-04-26T22:57:48.165Z,2.20
2023-04-26T23:00:16.858Z,2.03
2023-04-26T23:02:45.319Z,2.10
2023-04-26T23:05:13.856Z,2.53
2023-04-26T23:07:42.152Z,2.27
2023-04-26T23:10:11.292Z,2.40
2023-04-26T23:12:41.934Z,2.00
2023-04-26T23:15:11.787Z,1.90
2023-04-26T23:17:41.895Z,2.30
2023-04-26T23:20:14.571Z,1.63
2023-04-26T23:22:43.857Z,2.03
2023-04-26T23:25:12.728Z,1.73
2023-04-26T23:27:42.617Z,2.50
2023-04-26T23:30:11.964Z,2.23
2023-04-26T23:32:40.633Z,2.00
2023-04-26T23:35:09.964Z,1.87
2023-04-26T23:37:38.538Z,1.60
2023-04-26T23:40:10.309Z,2.10
2023-04-26T23:42:38.916Z,1.90
2023-04-26T23:45:10.874Z,1.93
2023-04-26T23:47:39.216Z,1.97
2023-04-26T23:50:09.092Z,1.90
2023-04-26T23:52:37.529Z,2.00
2023-04-26T23:55:06.803Z,1.37
2023-04-26T23:57:35.867Z,2.07
